Time;durP1;ratioP1;P1;durP2;ratioP2;P2;SDS_P1;SDS_P2;PMS_P1;PMS_P2;Temp;Humidity;BMP_temperature;BMP_pressure;BME280_temperature;BME280_humidity;BME280_pressure;Samples;Min_cycle;Max_cycle;Signal;HPM_P1;HPM_P2
2022/01/09 01:03:55;;;;;;;4.35;2.90;;;5.30;99.90;;;;;;1950833;72;22181;-93
2022/01/09 01:06:49;;;;;;;2.77;1.70;;;5.30;99.90;;;;;;1918144;75;21140;-93
2022/01/09 01:12:25;;;;;;;3.02;2.12;;;5.40;99.90;;;;;;1956172;72;22126;-94
2022/01/09 01:15:16;;;;;;;3.22;2.17;;;5.50;99.90;;;;;;1895503;75;21062;-93
2022/01/09 01:18:08;;;;;;;3.42;2.00;;;5.50;99.90;;;;;;1885063;75;21051;-91
2022/01/09 01:21:00;;;;;;;3.02;1.90;;;5.50;99.90;;;;;;1907277;75;21055;-93
2022/01/09 01:24:10;;;;;;;3.02;2.12;;;5.50;99.90;;;;;;1903702;75;21087;-94
2022/01/09 01:27:03;;;;;;;3.37;2.00;;;5.60;99.90;;;;;;1885299;76;21120;-94
2022/01/09 01:30:00;;;;;;;4.75;2.12;;;5.70;99.90;;;;;;1885173;76;21520;-93
2022/01/09 01:32:52;;;;;;;4.00;2.00;;;5.70;99.90;;;;;;1918108;75;21067;-93
2022/01/09 01:35:45;;;;;;;4.45;2.30;;;5.70;99.90;;;;;;1918148;75;21047;-92
2022/01/09 01:38:36;;;;;;;2.92;2.17;;;5.70;99.90;;;;;;1895753;75;21098;-93
2022/01/09 02:04:19;;;;;;;4.25;3.40;;;5.50;99.90;;;;;;1992113;71;22108;-94
2022/01/09 02:07:11;;;;;;;4.37;3.30;;;5.50;99.90;;;;;;2036415;70;21041;-94
2022/01/09 02:10:07;;;;;;;6.55;4.20;;;5.60;99.90;;;;;;2009870;70;21138;-92
2022/01/09 02:12:58;;;;;;;6.53;4.05;;;5.60;99.90;;;;;;2004544;69;21096;-93
2022/01/09 02:16:16;;;;;;;5.97;3.42;;;5.60;99.90;;;;;;1996396;72;21033;-92
2022/01/09 02:19:02;;;;;;;4.30;3.08;;;5.80;99.90;;;;;;2010609;70;21025;-92
2022/01/09 02:21:56;;;;;;;2.77;1.57;;;5.80;99.90;;;;;;2030145;70;21022;-93
2022/01/09 02:24:47;;;;;;;1.10;0.42;;;5.70;99.90;;;;;;2026555;70;21089;-90
2022/01/09 02:27:39;;;;;;;2.80;0.50;;;5.60;99.90;;;;;;2009732;70;21169;-90
2022/01/09 02:30:32;;;;;;;1.15;0.37;;;5.10;99.90;;;;;;2013642;70;21122;-87
2022/01/09 02:33:25;;;;;;;1.00;0.40;;;4.50;99.90;;;;;;2009970;70;21136;-89
2022/01/09 02:36:17;;;;;;;2.75;0.30;;;4.40;99.90;;;;;;1996727;70;21073;-88
2022/01/09 02:39:09;;;;;;;2.47;0.40;;;4.30;99.90;;;;;;2020296;70;21073;-87
2022/01/09 02:42:01;;;;;;;2.02;0.55;;;4.40;99.90;;;;;;1998674;70;21186;-87
2022/01/09 02:44:55;;;;;;;1.60;0.30;;;4.40;99.90;;;;;;2011767;69;21064;-88
2022/01/09 02:50:35;;;;;;;1.42;0.30;;;5.10;99.90;;;;;;1952493;72;22169;-89
2022/01/09 02:53:26;;;;;;;1.45;0.20;;;5.30;99.90;;;;;;1908050;74;21147;-89
2022/01/09 02:56:18;;;;;;;0.88;0.15;;;5.40;99.90;;;;;;1922272;74;21229;-89
2022/01/09 03:01:48;;;;;;;1.32;0.20;;;5.60;99.90;;;;;;1941451;72;22197;-90
2022/01/09 03:04:40;;;;;;;3.08;0.30;;;5.70;99.90;;;;;;1896535;75;21158;-89
2022/01/09 03:10:19;;;;;;;1.40;0.40;;;5.50;99.90;;;;;;1930193;72;28360;-89
2022/01/09 03:16:22;;;;;;;0.78;0.30;;;5.40;99.90;;;;;;1945127;72;22201;-89
2022/01/09 03:21:54;;;;;;;0.65;0.42;;;5.40;99.90;;;;;;1956047;72;22235;-90
2022/01/09 03:24:46;;;;;;;2.92;0.33;;;5.40;99.90;;;;;;1906024;75;21139;-88
2022/01/09 03:27:40;;;;;;;4.05;0.35;;;5.50;99.90;;;;;;1904283;74;21125;-90
2022/01/09 03:30:32;;;;;;;1.50;0.30;;;5.90;99.90;;;;;;1906385;74;21072;-91
2022/01/09 03:36:21;;;;;;;2.42;0.40;;;6.10;99.90;;;;;;1935119;72;22334;-91
2022/01/09 03:39:43;;;;;;;2.22;0.42;;;6.10;99.90;;;;;;1891051;75;21191;-91
2022/01/09 03:42:34;;;;;;;2.62;0.78;;;6.10;99.90;;;;;;1875555;74;21059;-90
2022/01/09 03:45:27;;;;;;;2.10;0.47;;;6.00;99.90;;;;;;1907121;73;21056;-91
2022/01/09 03:48:37;;;;;;;1.82;0.30;;;6.00;99.90;;;;;;1904910;75;21026;-91
2022/01/09 03:51:33;;;;;;;2.77;0.25;;;6.00;99.90;;;;;;1897997;75;21062;-91
2022/01/09 03:54:24;;;;;;;1.32;0.30;;;6.30;99.90;;;;;;1897960;75;21063;-90
2022/01/09 03:59:54;;;;;;;3.10;0.30;;;6.20;99.90;;;;;;1945108;72;22324;-92
2022/01/09 04:02:48;;;;;;;1.37;0.33;;;6.10;99.90;;;;;;1903364;75;21137;-91
2022/01/09 04:05:42;;;;;;;0.75;0.30;;;6.00;99.90;;;;;;1904892;75;21097;-92
2022/01/09 04:08:34;;;;;;;2.92;0.30;;;6.00;99.90;;;;;;1888735;75;21107;-91
2022/01/09 04:11:45;;;;;;;4.03;0.53;;;5.90;99.90;;;;;;1895543;75;21150;-91
2022/01/09 04:14:37;;;;;;;4.90;0.50;;;5.90;99.90;;;;;;1890385;73;21056;-91
2022/01/09 04:17:38;;;;;;;2.30;0.50;;;5.80;99.90;;;;;;1899506;75;21166;-90
2022/01/09 04:20:24;;;;;;;2.87;0.47;;;5.90;99.90;;;;;;1881508;75;21063;-90
2022/01/09 04:37:00;;;;;;;2.00;0.57;;;6.20;99.90;;;;;;1938796;72;22325;-90
2022/01/09 04:39:53;;;;;;;3.20;0.60;;;6.60;99.90;;;;;;1889158;75;21052;-90
2022/01/09 04:42:47;;;;;;;2.70;0.70;;;6.60;99.90;;;;;;1895225;75;21103;-89
2022/01/09 04:45:38;;;;;;;2.87;0.40;;;6.60;99.90;;;;;;1925284;73;21130;-90
2022/01/09 04:51:29;;;;;;;1.95;0.40;;;6.50;99.90;;;;;;1926424;72;22174;-88
2022/01/09 04:57:07;;;;;;;3.37;0.30;;;5.40;99.90;;;;;;1933791;72;22150;-89
2022/01/09 05:02:42;;;;;;;1.70;0.37;;;5.30;99.90;;;;;;1914211;72;22259;-89
2022/01/09 05:05:34;;;;;;;2.77;0.42;;;5.50;99.90;;;;;;1871508;75;21073;-89
2022/01/09 05:08:25;;;;;;;2.55;0.50;;;5.60;99.90;;;;;;1889574;75;21158;-89
2022/01/09 05:11:17;;;;;;;1.87;0.40;;;5.80;99.90;;;;;;1898350;75;21134;-89
2022/01/09 05:14:27;;;;;;;2.50;0.40;;;5.80;99.90;;;;;;1902632;74;21023;-91
2022/01/09 05:19:59;;;;;;;0.93;0.30;;;5.40;99.90;;;;;;1945091;72;22162;-89
2022/01/09 05:25:39;;;;;;;0.88;0.30;;;5.20;99.90;;;;;;1976007;72;22133;-89
2022/01/09 05:28:31;;;;;;;1.32;0.20;;;5.10;99.90;;;;;;1918585;73;21196;-89
2022/01/09 05:31:23;;;;;;;4.10;1.47;;;5.10;99.90;;;;;;1917563;75;21499;-89
2022/01/09 05:36:56;;;;;;;1.07;0.30;;;5.20;99.90;;;;;;1946198;72;22211;-90
2022/01/09 05:39:47;;;;;;;3.35;0.62;;;5.20;99.90;;;;;;1910449;75;21182;-89
2022/01/09 05:45:21;;;;;;;2.60;0.40;;;5.30;99.90;;;;;;1942343;72;22265;-91
2022/01/09 06:01:16;;;;;;;0.95;0.20;;;5.30;99.90;;;;;;1888664;75;22598;-92
2022/01/09 06:04:59;;;;;;;1.22;0.60;;;5.10;99.90;;;;;;1941781;73;21176;-91
2022/01/09 06:59:50;;;;;;;4.80;0.60;;;5.30;99.90;;;;;;1990953;71;22080;-92
2022/01/09 07:02:42;;;;;;;8.68;1.07;;;5.30;99.90;;;;;;1919616;75;21055;-93
2022/01/09 07:05:36;;;;;;;5.17;0.80;;;5.20;99.90;;;;;;1996354;72;21020;-92
2022/01/09 07:13:15;;;;;;;3.25;0.60;;;5.20;99.90;;;;;;2083465;68;22106;-93
2022/01/09 07:16:08;;;;;;;3.83;0.85;;;5.40;99.90;;;;;;2049647;69;21123;-92
2022/01/09 07:42:56;;;;;;;2.17;0.40;;;4.70;99.90;;;;;;2102355;68;22052;-92
2022/01/09 09:29:03;;;;;;;1.82;0.98;;;5.40;99.90;;;;;;1934322;72;22216;-86
2022/01/09 09:31:56;;;;;;;3.30;1.20;;;5.40;99.90;;;;;;1878904;75;21059;-86
2022/01/09 09:34:49;;;;;;;2.47;1.20;;;5.40;99.90;;;;;;1892092;74;21141;-85
2022/01/09 09:40:32;;;;;;;4.37;2.20;;;5.20;99.90;;;;;;1947561;72;22132;-86
2022/01/09 09:43:23;;;;;;;5.30;1.35;;;5.20;99.90;;;;;;1920374;74;21088;-86
2022/01/09 09:46:17;;;;;;;3.25;1.02;;;5.30;99.90;;;;;;1930494;72;21173;-85
2022/01/09 09:49:09;;;;;;;3.42;0.90;;;5.30;99.90;;;;;;1921286;74;21155;-85
2022/01/09 09:54:58;;;;;;;2.87;1.25;;;5.20;99.90;;;;;;1949779;72;22237;-86
2022/01/09 09:57:51;;;;;;;3.60;1.22;;;5.30;99.90;;;;;;1925959;73;21180;-86
2022/01/09 10:00:43;;;;;;;3.62;1.32;;;5.20;99.90;;;;;;1931242;73;21110;-86
2022/01/09 10:03:35;;;;;;;2.25;1.10;;;5.20;99.90;;;;;;1929131;73;21116;-86
2022/01/09 10:06:46;;;;;;;4.05;1.37;;;5.20;99.90;;;;;;1921220;73;21102;-85
2022/01/09 10:09:40;;;;;;;1.80;1.42;;;5.30;99.90;;;;;;1940930;73;21101;-87
2022/01/09 10:12:35;;;;;;;4.95;1.42;;;5.30;99.90;;;;;;1921884;73;21067;-86
2022/01/09 10:18:11;;;;;;;4.28;1.50;;;5.40;99.90;;;;;;1934303;72;22263;-87
2022/01/09 10:21:28;;;;;;;4.80;1.42;;;5.40;99.90;;;;;;1897193;75;21572;-86
2022/01/09 10:27:05;;;;;;;6.58;2.27;;;5.30;99.90;;;;;;1947979;72;22302;-87
2022/01/09 10:29:57;;;;;;;7.45;2.20;;;5.30;99.90;;;;;;1898496;75;21089;-87
2022/01/09 10:35:43;;;;;;;6.25;2.42;;;5.20;99.90;;;;;;1942300;72;22185;-87
2022/01/09 10:41:15;;;;;;;3.77;1.85;;;5.20;99.90;;;;;;1950517;72;22268;-87
2022/01/09 10:44:15;;;;;;;4.33;2.08;;;5.20;99.90;;;;;;1880404;75;21189;-86
2022/01/09 10:47:12;;;;;;;4.90;2.42;;;5.20;99.90;;;;;;1873851;76;21102;-95
2022/01/09 10:50:30;;;;;;;3.75;1.85;;;5.20;99.90;;;;;;1874067;76;21083;-95
2022/01/09 10:53:42;;;;;;;5.83;1.70;;;5.20;99.90;;;;;;1874057;76;21106;-96
2022/01/09 11:03:12;;;;;;;6.10;1.80;;;5.30;99.90;;;;;;1873920;76;21149;-95
2022/01/09 11:06:07;;;;;;;4.42;1.10;;;5.30;99.90;;;;;;1864173;76;21145;-94
2022/01/09 11:09:00;;;;;;;4.37;1.15;;;5.30;99.90;;;;;;1863953;76;21148;-95
2022/01/09 11:11:54;;;;;;;4.05;1.32;;;5.40;99.90;;;;;;1873697;76;21058;-95
2022/01/09 11:14:51;;;;;;;4.65;1.20;;;5.40;99.90;;;;;;1873749;76;21095;-96
2022/01/09 11:17:43;;;;;;;6.87;1.25;;;5.30;99.90;;;;;;1874106;76;21149;-96
2022/01/09 11:20:38;;;;;;;3.92;0.90;;;5.30;99.90;;;;;;1874419;76;21071;-96
2022/01/09 11:23:38;;;;;;;6.10;1.47;;;5.30;99.90;;;;;;1874511;76;21356;-95
2022/01/09 11:26:34;;;;;;;3.72;1.60;;;5.40;99.90;;;;;;1876226;76;21092;-95
2022/01/09 11:29:32;;;;;;;8.60;2.15;;;5.40;99.90;;;;;;1874505;76;21087;-95
2022/01/09 11:32:53;;;;;;;7.12;2.50;;;5.40;99.90;;;;;;1874082;76;21101;-94
2022/01/09 11:36:10;;;;;;;6.55;2.37;;;5.50;99.90;;;;;;1877441;75;21097;-96
2022/01/09 11:39:12;;;;;;;7.50;2.47;;;5.50;99.90;;;;;;1876052;76;21164;-95
2022/01/09 11:42:14;;;;;;;4.83;2.17;;;5.60;99.90;;;;;;1875248;76;21112;-96
2022/01/09 11:45:08;;;;;;;6.20;2.65;;;5.70;99.90;;;;;;1874758;76;21059;-94
2022/01/09 11:48:06;;;;;;;6.22;3.02;;;5.80;99.90;;;;;;1875255;76;21064;-95
2022/01/09 11:51:21;;;;;;;3.77;1.85;;;5.80;99.90;;;;;;1874283;76;21093;-96
2022/01/09 11:54:18;;;;;;;5.97;2.72;;;5.80;99.90;;;;;;1892975;75;21094;-89
2022/01/09 11:57:16;;;;;;;5.40;2.20;;;5.80;99.90;;;;;;1891933;75;21056;-91
2022/01/09 12:00:08;;;;;;;6.17;1.70;;;5.90;99.90;;;;;;1885851;75;21128;-88
2022/01/09 12:03:05;;;;;;;4.87;1.30;;;6.10;99.90;;;;;;1894417;75;21104;-89
2022/01/09 12:06:03;;;;;;;5.17;1.35;;;6.20;99.90;;;;;;1889123;75;21179;-91
2022/01/09 12:09:09;;;;;;;7.03;2.17;;;6.20;99.90;;;;;;1900773;75;21044;-90
2022/01/09 12:12:11;;;;;;;5.17;1.32;;;6.20;99.90;;;;;;1877348;75;21347;-88
2022/01/09 12:15:08;;;;;;;5.15;2.17;;;6.20;99.90;;;;;;1876886;75;21226;-88
2022/01/09 12:18:00;;;;;;;6.92;1.50;;;6.20;99.90;;;;;;1895400;74;21098;-88
2022/01/09 12:20:54;;;;;;;3.77;1.32;;;6.10;99.90;;;;;;1881892;75;21108;-88
2022/01/09 12:23:45;;;;;;;4.47;1.22;;;6.10;99.90;;;;;;1885274;75;21112;-88
2022/01/09 12:26:53;;;;;;;5.10;1.32;;;6.10;99.90;;;;;;1888775;75;21056;-88
2022/01/09 12:29:49;;;;;;;6.35;1.77;;;6.10;99.90;;;;;;1890190;75;21096;-87
2022/01/09 12:32:45;;;;;;;7.12;1.70;;;6.20;99.90;;;;;;1880449;75;21095;-88
2022/01/09 12:35:38;;;;;;;8.35;1.60;;;6.20;99.90;;;;;;1895287;75;21172;-90
2022/01/09 12:38:33;;;;;;;5.20;1.85;;;6.10;99.90;;;;;;1886548;75;21103;-89
2022/01/09 12:41:27;;;;;;;7.03;1.67;;;6.00;99.90;;;;;;1879967;75;21192;-88
2022/01/09 12:44:19;;;;;;;7.72;2.25;;;6.00;99.90;;;;;;1899117;75;21255;-87
2022/01/09 12:50:05;;;;;;;6.12;2.10;;;5.90;99.90;;;;;;1941522;72;22158;-90
2022/01/09 12:53:17;;;;;;;5.67;1.85;;;5.80;99.90;;;;;;1899667;75;21132;-89
2022/01/09 12:56:12;;;;;;;8.45;2.12;;;5.90;99.90;;;;;;1895106;75;21517;-88
2022/01/09 12:59:14;;;;;;;7.80;2.00;;;5.90;99.90;;;;;;1894634;75;21122;-89
2022/01/09 13:18:16;;;;;;;7.37;2.17;;;5.70;99.90;;;;;;1938240;72;22197;-89
2022/01/09 13:21:22;;;;;;;8.25;2.40;;;5.70;99.90;;;;;;1892281;75;21152;-89
2022/01/09 13:27:02;;;;;;;6.42;2.10;;;5.70;99.90;;;;;;1940335;72;20120;-90
2022/01/09 13:29:58;;;;;;;8.48;2.58;;;5.70;99.90;;;;;;1893370;75;21110;-90
2022/01/09 13:35:30;;;;;;;4.60;2.00;;;5.70;99.90;;;;;;1940219;72;22154;-90
2022/01/09 13:41:01;;;;;;;7.95;2.58;;;5.50;99.90;;;;;;1945425;72;22365;-90
2022/01/09 13:43:55;;;;;;;9.05;3.17;;;5.50;99.90;;;;;;1906117;74;21106;-90
2022/01/09 13:47:05;;;;;;;6.75;2.70;;;5.60;99.90;;;;;;1912068;74;21620;-90
2022/01/09 13:50:03;;;;;;;8.40;2.90;;;5.60;99.90;;;;;;1910052;75;21105;-90
2022/01/09 13:53:17;;;;;;;6.55;3.08;;;5.70;99.90;;;;;;1912606;75;21039;-90
2022/01/09 13:56:18;;;;;;;6.33;2.20;;;5.70;99.90;;;;;;1888538;75;21471;-89
2022/01/09 13:59:09;;;;;;;7.42;2.33;;;5.70;99.90;;;;;;1886053;75;21137;-89
2022/01/09 14:04:43;;;;;;;7.25;2.50;;;5.60;99.90;;;;;;1931688;72;22157;-90
2022/01/09 14:07:36;;;;;;;8.30;2.15;;;5.60;99.90;;;;;;1898705;75;21146;-89
2022/01/09 14:10:35;;;;;;;7.85;2.05;;;5.50;99.90;;;;;;1905289;75;21109;-89
2022/01/09 14:13:28;;;;;;;10.48;2.08;;;5.50;99.90;;;;;;1906095;75;21631;-89
2022/01/09 14:16:39;;;;;;;9.53;2.05;;;5.50;99.90;;;;;;1909574;73;21197;-89
2022/01/09 14:19:49;;;;;;;5.87;1.72;;;5.40;99.90;;;;;;1911546;75;21055;-90
2022/01/09 14:22:42;;;;;;;7.37;2.08;;;5.50;99.90;;;;;;1899033;75;21059;-89
2022/01/09 14:25:37;;;;;;;6.58;1.92;;;5.50;99.90;;;;;;1897343;75;21095;-86
2022/01/09 14:31:13;;;;;;;7.53;2.47;;;5.50;99.90;;;;;;1956547;72;22222;-92
2022/01/09 14:34:06;;;;;;;9.70;2.35;;;5.40;99.90;;;;;;1926742;74;21129;-91
2022/01/09 14:36:58;;;;;;;11.57;3.60;;;5.50;99.90;;;;;;1905095;75;21096;-91
2022/01/09 14:39:50;;;;;;;12.50;2.90;;;5.50;99.90;;;;;;1928539;74;21068;-89
2022/01/09 14:43:01;;;;;;;9.10;2.55;;;5.50;99.90;;;;;;1927798;74;21116;-92
2022/01/09 14:45:54;;;;;;;7.65;2.25;;;5.60;99.90;;;;;;1908021;74;21062;-91
2022/01/09 14:48:46;;;;;;;6.37;1.98;;;5.60;99.90;;;;;;1925761;73;21066;-90
2022/01/09 14:51:37;;;;;;;7.80;2.00;;;5.50;99.90;;;;;;1886746;75;21089;-91
2022/01/09 14:54:29;;;;;;;7.08;2.42;;;5.50;99.90;;;;;;1921010;74;21111;-91
2022/01/09 14:57:22;;;;;;;8.88;2.37;;;5.50;99.90;;;;;;1909062;74;21176;-91
2022/01/09 15:03:00;;;;;;;8.55;2.20;;;5.40;99.90;;;;;;1953469;72;22185;-91
2022/01/09 15:05:54;;;;;;;6.37;2.08;;;5.30;99.90;;;;;;1919063;73;21106;-89
2022/01/09 15:08:47;;;;;;;5.03;2.02;;;5.30;99.90;;;;;;1930591;73;21436;-90
2022/01/09 15:11:39;;;;;;;5.75;2.05;;;5.30;99.90;;;;;;1917679;75;21086;-90
2022/01/09 15:14:53;;;;;;;7.25;2.45;;;5.30;99.90;;;;;;1919410;73;21105;-90
2022/01/09 15:20:41;;;;;;;7.30;2.10;;;5.20;99.90;;;;;;1975957;72;22194;-89
2022/01/09 15:23:33;;;;;;;5.22;2.10;;;5.30;99.90;;;;;;1921300;73;21133;-90
2022/01/09 15:26:28;;;;;;;6.20;2.40;;;5.20;99.90;;;;;;1920059;73;21201;-90
2022/01/09 15:29:20;;;;;;;5.87;2.87;;;5.20;99.90;;;;;;1935062;73;21058;-90
2022/01/09 15:35:31;;;;;;;7.12;1.70;;;5.20;99.90;;;;;;1939981;72;22157;-88
2022/01/09 15:38:23;;;;;;;5.95;2.17;;;5.20;99.90;;;;;;1910407;75;21047;-85
2022/01/09 15:41:17;;;;;;;4.22;1.57;;;5.20;99.90;;;;;;1909320;75;21075;-85
2022/01/09 15:44:08;;;;;;;3.83;1.62;;;5.20;99.90;;;;;;1884318;75;21076;-86
2022/01/09 15:47:20;;;;;;;4.95;2.22;;;5.10;99.90;;;;;;1888327;73;21119;-86
2022/01/09 15:50:12;;;;;;;7.10;3.02;;;5.00;99.90;;;;;;1889918;75;21051;-85
2022/01/09 15:53:04;;;;;;;3.52;1.30;;;4.90;99.90;;;;;;1883936;75;21148;-86
2022/01/09 15:55:58;;;;;;;4.17;1.60;;;4.80;99.90;;;;;;1893239;75;21184;-86
2022/01/09 15:58:52;;;;;;;4.65;1.50;;;4.80;99.90;;;;;;1832239;76;21058;-87
2022/01/09 16:01:44;;;;;;;2.98;1.40;;;4.90;99.90;;;;;;1884565;75;21067;-85
2022/01/09 16:04:36;;;;;;;4.42;1.10;;;4.90;99.90;;;;;;1905568;75;21583;-85
2022/01/09 16:07:28;;;;;;;5.12;1.57;;;4.80;99.90;;;;;;1910577;75;21168;-87
2022/01/09 16:10:19;;;;;;;5.67;1.80;;;4.80;99.90;;;;;;1888345;75;21109;-85
2022/01/09 16:15:53;;;;;;;7.20;1.95;;;4.80;99.90;;;;;;1938978;72;22246;-87
2022/01/09 16:21:28;;;;;;;3.90;2.40;;;4.60;99.90;;;;;;1943012;72;22260;-85
2022/01/09 16:24:19;;;;;;;3.52;2.77;;;4.50;99.90;;;;;;1837356;77;21678;-85
2022/01/09 16:27:10;;;;;;;5.03;3.58;;;4.50;99.90;;;;;;1875640;75;21052;-85
2022/01/09 16:30:07;;;;;;;2.80;2.00;;;4.50;99.90;;;;;;1873302;75;21148;-85
2022/01/09 16:33:18;;;;;;;2.98;1.70;;;4.50;99.90;;;;;;1882294;75;21143;-85
2022/01/09 16:36:13;;;;;;;2.27;1.32;;;4.50;99.90;;;;;;1887233;75;21111;-85
2022/01/09 16:39:10;;;;;;;2.05;1.42;;;4.60;99.90;;;;;;1904273;75;21107;-86
2022/01/09 16:42:00;;;;;;;2.95;1.30;;;4.60;99.90;;;;;;1884367;75;21119;-89
2022/01/09 16:47:30;;;;;;;1.75;1.40;;;4.50;99.90;;;;;;1940410;72;22141;-86
2022/01/09 16:50:23;;;;;;;4.97;2.08;;;4.40;99.90;;;;;;1905103;75;21105;-86
2022/01/09 16:55:55;;;;;;;2.00;1.52;;;4.40;99.90;;;;;;1956009;72;22184;-86
2022/01/09 17:01:40;;;;;;;4.78;2.27;;;4.50;99.90;;;;;;1956639;72;22342;-85
2022/01/09 17:04:29;;;;;;;3.22;2.65;;;4.50;99.90;;;;;;1925477;73;21132;-86
2022/01/09 17:07:21;;;;;;;3.85;2.70;;;4.60;99.90;;;;;;1917134;75;21097;-84
2022/01/09 17:10:13;;;;;;;4.08;2.33;;;4.60;99.90;;;;;;1927732;73;21042;-85
2022/01/09 17:13:23;;;;;;;4.65;3.20;;;4.60;99.90;;;;;;1919828;73;21113;-85
2022/01/09 17:16:16;;;;;;;4.17;3.10;;;4.50;99.90;;;;;;1926218;73;21104;-87
2022/01/09 17:19:09;;;;;;;5.72;3.25;;;4.60;99.90;;;;;;1936472;73;21183;-87
2022/01/09 17:22:01;;;;;;;5.47;3.20;;;4.60;99.90;;;;;;1927729;73;21852;-88
2022/01/09 17:24:52;;;;;;;5.22;3.20;;;4.60;99.90;;;;;;1932305;73;21109;-87
2022/01/09 17:27:45;;;;;;;6.72;3.22;;;4.60;99.90;;;;;;1917556;73;21056;-87
2022/01/09 17:30:38;;;;;;;4.72;2.87;;;4.50;99.90;;;;;;1917561;75;21099;-87
2022/01/09 17:33:31;;;;;;;5.15;3.30;;;4.50;99.90;;;;;;1926185;73;21130;-88
2022/01/09 17:39:02;;;;;;;5.47;3.12;;;4.50;99.90;;;;;;1917269;72;22177;-87
2022/01/09 17:41:53;;;;;;;4.55;3.50;;;4.60;99.90;;;;;;1848009;77;21076;-88
2022/01/09 17:47:25;;;;;;;6.20;3.85;;;4.60;99.90;;;;;;1933970;72;22277;-88
2022/01/09 17:53:00;;;;;;;5.65;4.00;;;4.50;99.90;;;;;;1950611;72;22200;-88
2022/01/09 17:55:51;;;;;;;5.60;4.03;;;4.40;99.90;;;;;;1947558;73;21194;-89
2022/01/09 17:58:43;;;;;;;5.83;3.80;;;4.40;99.90;;;;;;1935364;73;21152;-88
2022/01/09 18:04:21;;;;;;;7.22;4.55;;;4.50;99.90;;;;;;1965185;72;22220;-88
2022/01/09 18:07:13;;;;;;;4.80;3.30;;;4.40;99.90;;;;;;1935728;73;21062;-88
2022/01/09 18:10:16;;;;;;;6.83;4.80;;;4.40;99.90;;;;;;1910141;75;21125;-92
2022/01/09 18:13:18;;;;;;;5.75;4.87;;;4.50;99.90;;;;;;1928351;73;21133;-84
2022/01/09 18:16:33;;;;;;;8.00;6.12;;;4.40;99.90;;;;;;1902067;75;21515;-89
2022/01/09 18:19:28;;;;;;;6.20;5.12;;;4.30;99.90;;;;;;1923746;73;21079;-89
2022/01/09 18:22:25;;;;;;;5.17;3.70;;;4.40;99.90;;;;;;1917471;75;21122;-88
2022/01/09 18:25:27;;;;;;;4.62;3.27;;;4.40;99.90;;;;;;1917574;75;21094;-91
2022/01/09 18:31:26;;;;;;;6.42;4.28;;;4.50;99.90;;;;;;1964868;71;22166;-90
2022/01/09 18:40:17;;;;;;;7.87;6.55;;;4.60;99.90;;;;;;1943081;72;22227;-90
2022/01/09 18:45:59;;;;;;;12.20;8.85;;;4.60;99.90;;;;;;1920899;72;28032;-89
2022/01/09 18:48:57;;;;;;;9.38;8.00;;;4.70;99.90;;;;;;1899561;73;21125;-89
2022/01/09 18:51:49;;;;;;;10.82;8.33;;;4.70;99.90;;;;;;1894294;75;21126;-90
2022/01/09 18:57:48;;;;;;;9.45;7.12;;;4.60;99.90;;;;;;1948626;72;22146;-88
2022/01/09 19:00:41;;;;;;;9.63;7.58;;;4.60;99.90;;;;;;1891688;74;21062;-90
2022/01/09 19:03:33;;;;;;;10.48;8.20;;;4.60;99.90;;;;;;1877829;75;21085;-90
2022/01/09 19:06:27;;;;;;;10.75;8.05;;;4.60;99.90;;;;;;1882296;75;21111;-90
2022/01/09 19:09:37;;;;;;;9.78;7.40;;;4.60;99.90;;;;;;1889288;75;21135;-90
2022/01/09 19:12:28;;;;;;;10.38;7.37;;;4.50;99.90;;;;;;1894456;75;21048;-88
2022/01/09 19:15:21;;;;;;;9.98;7.67;;;4.40;99.90;;;;;;1880408;75;21181;-90
2022/01/09 19:20:58;;;;;;;9.08;6.28;;;4.30;99.90;;;;;;1951375;72;22254;-89
2022/01/09 19:23:52;;;;;;;10.93;5.75;;;4.10;99.90;;;;;;1930758;73;21158;-89
2022/01/09 19:26:44;;;;;;;9.18;4.78;;;4.10;99.90;;;;;;1923809;73;21223;-89
2022/01/09 19:29:36;;;;;;;7.37;5.12;;;4.00;99.90;;;;;;1927446;73;21111;-89
2022/01/09 19:32:46;;;;;;;6.53;4.25;;;4.00;99.90;;;;;;1864822;76;21172;-88
2022/01/09 19:35:37;;;;;;;7.60;5.17;;;4.00;99.90;;;;;;1922433;73;21129;-89
2022/01/09 19:38:29;;;;;;;8.50;4.75;;;4.00;99.90;;;;;;1936673;73;21228;-89
2022/01/09 19:41:21;;;;;;;7.28;5.10;;;3.80;99.90;;;;;;1917625;75;21124;-89
2022/01/09 19:44:19;;;;;;;7.53;4.67;;;3.80;99.90;;;;;;1930933;73;21199;-90
2022/01/09 19:49:49;;;;;;;7.10;5.40;;;3.90;99.90;;;;;;1939783;72;22271;-90
2022/01/09 19:55:20;;;;;;;6.45;4.90;;;4.10;99.90;;;;;;1952415;72;22185;-90
2022/01/09 20:00:51;;;;;;;5.97;4.55;;;4.10;99.90;;;;;;1951528;72;22118;-92
2022/01/09 20:06:45;;;;;;;8.08;4.87;;;4.10;99.90;;;;;;1972759;72;22191;-90
2022/01/09 20:09:42;;;;;;;5.83;4.40;;;4.10;99.90;;;;;;1922403;73;21079;-89
2022/01/09 20:15:28;;;;;;;4.12;3.15;;;4.20;99.90;;;;;;1929263;72;22127;-90
2022/01/09 20:18:28;;;;;;;5.47;3.20;;;4.20;99.90;;;;;;1893936;73;21101;-89
2022/01/09 20:21:26;;;;;;;3.80;3.08;;;4.00;99.90;;;;;;1909513;74;21192;-90
2022/01/09 20:24:24;;;;;;;4.70;3.37;;;4.20;99.90;;;;;;1877940;75;21083;-90
2022/01/09 20:30:43;;;;;;;6.17;3.80;;;4.00;99.90;;;;;;1996370;71;22284;-90
2022/01/09 20:33:36;;;;;;;6.47;4.72;;;4.00;99.90;;;;;;1934324;73;21102;-90
2022/01/09 20:36:34;;;;;;;6.85;4.87;;;4.10;99.90;;;;;;2001093;70;21138;-90
2022/01/09 20:39:27;;;;;;;6.83;5.20;;;4.10;99.90;;;;;;2016096;70;21014;-89
2022/01/09 20:45:20;;;;;;;5.78;5.15;;;4.20;99.90;;;;;;1945294;72;22276;-90
2022/01/09 20:48:20;;;;;;;6.33;4.53;;;4.20;99.90;;;;;;1888197;73;21138;-90
2022/01/09 20:51:17;;;;;;;5.60;4.50;;;4.10;99.90;;;;;;1901983;75;21055;-89
2022/01/09 20:54:12;;;;;;;5.65;4.60;;;4.20;99.90;;;;;;1904303;75;21058;-89
2022/01/09 20:57:24;;;;;;;6.28;5.08;;;4.20;99.90;;;;;;1884943;76;21091;-89
2022/01/09 21:03:34;;;;;;;7.37;5.00;;;4.20;99.90;;;;;;2090998;68;22047;-89
2022/01/09 21:06:39;;;;;;;7.83;5.53;;;4.20;99.90;;;;;;2057538;69;21133;-90
2022/01/09 21:09:34;;;;;;;10.88;6.28;;;4.10;99.90;;;;;;2037926;69;21105;-89
2022/01/09 21:12:32;;;;;;;6.37;5.47;;;4.10;99.90;;;;;;2032778;70;21096;-89
2022/01/09 21:18:22;;;;;;;7.12;5.30;;;4.20;99.90;;;;;;2036488;69;22122;-90
2022/01/09 21:21:34;;;;;;;5.90;4.60;;;4.20;99.90;;;;;;1997963;72;21137;-90
2022/01/09 21:24:22;;;;;;;6.53;4.47;;;4.20;99.90;;;;;;1978958;72;21108;-90
2022/01/09 21:27:36;;;;;;;;;;;;;;;;;;;;;
2022/01/09 21:30:43;;;;;;;6.30;4.42;;;4.20;99.90;;;;;;1973709;72;21462;-89
2022/01/09 21:33:52;;;;;;;6.05;4.40;;;4.10;99.90;;;;;;1986456;72;21097;-89
2022/01/09 21:36:45;;;;;;;6.65;4.67;;;4.10;99.90;;;;;;1986778;72;21082;-89
2022/01/09 21:39:39;;;;;;;5.62;4.60;;;4.10;99.90;;;;;;1979168;72;21037;-89
2022/01/09 21:45:24;;;;;;;5.72;5.10;;;4.10;99.90;;;;;;1957839;72;22140;-90
2022/01/09 21:48:24;;;;;;;6.37;5.17;;;4.20;99.90;;;;;;1895568;73;21067;-90
2022/01/09 21:51:15;;;;;;;7.12;5.22;;;4.20;99.90;;;;;;1905237;75;21099;-90
2022/01/09 21:54:16;;;;;;;6.78;5.83;;;4.20;99.90;;;;;;1912531;75;21158;-89
2022/01/09 21:57:29;;;;;;;6.90;5.53;;;4.20;99.90;;;;;;1895102;75;21144;-90
2022/01/09 22:03:05;;;;;;;7.75;6.53;;;4.20;99.90;;;;;;1930687;72;22261;-90
2022/01/09 22:05:56;;;;;;;8.03;5.70;;;4.20;99.90;;;;;;1883090;75;21111;-89
2022/01/09 22:08:48;;;;;;;8.03;6.50;;;4.20;99.90;;;;;;1897859;75;21122;-89
2022/01/09 22:11:41;;;;;;;7.85;6.47;;;4.30;99.90;;;;;;1880690;75;21104;-89
2022/01/09 22:14:54;;;;;;;8.10;6.35;;;4.40;99.90;;;;;;1895917;75;21078;-90
2022/01/09 22:21:32;;;;;;;8.80;6.35;;;4.30;99.90;;;;;;1900193;75;21229;-89
2022/01/09 22:45:00;;;;;;;8.28;6.47;;;4.10;99.90;;;;;;1978326;71;22156;-89
2022/01/09 22:50:48;;;;;;;7.55;6.28;;;4.10;99.90;;;;;;1937492;72;22131;-89
2022/01/09 22:53:46;;;;;;;7.03;5.77;;;4.20;99.90;;;;;;1880761;75;21178;-89
2022/01/09 22:56:37;;;;;;;8.65;6.45;;;4.20;99.90;;;;;;1900770;75;21177;-89
2022/01/09 23:02:18;;;;;;;10.75;9.25;;;4.10;99.90;;;;;;1926458;72;28081;-90
2022/01/09 23:05:14;;;;;;;9.70;8.15;;;4.40;99.90;;;;;;1916978;75;21157;-90
2022/01/09 23:08:06;;;;;;;9.60;7.53;;;4.30;99.90;;;;;;1904622;75;21130;-89
2022/01/09 23:11:00;;;;;;;8.23;7.07;;;4.20;99.90;;;;;;1901949;75;21071;-88
2022/01/09 23:14:10;;;;;;;9.30;7.50;;;4.20;99.90;;;;;;1903522;75;21051;-90
2022/01/09 23:17:01;;;;;;;10.70;7.58;;;4.10;99.90;;;;;;1891350;75;21171;-89
2022/01/09 23:26:29;;;;;;;9.00;7.30;;;4.00;99.90;;;;;;1794086;76;21137;-89
2022/01/09 23:29:20;;;;;;;10.80;8.08;;;3.90;99.90;;;;;;1869931;75;21109;-89
2022/01/09 23:34:57;;;;;;;8.33;6.95;;;3.90;99.90;;;;;;1935809;72;22101;-89
2022/01/09 23:37:51;;;;;;;9.05;7.25;;;3.90;99.90;;;;;;1899589;75;21265;-89
2022/01/09 23:40:42;;;;;;;8.63;7.33;;;3.90;99.90;;;;;;1902826;75;21567;-89
2022/01/09 23:43:34;;;;;;;8.88;7.17;;;3.90;99.90;;;;;;1900475;75;21111;-89
2022/01/09 23:52:07;;;;;;;9.75;7.87;;;4.00;99.90;;;;;;1949811;72;22196;-89
2022/01/09 23:54:58;;;;;;;10.50;7.72;;;4.00;99.90;;;;;;1938040;73;21580;-88
2022/01/09 23:57:50;;;;;;;10.68;8.00;;;3.90;99.90;;;;;;1927460;73;21201;-89
